GENERAL EDWARD LAWRENCE LOGAN INTL

KBOS (BOS)
Boston, Massachusetts
Towered

Vatsim Metar:
KBOS 280554Z 34009KT 10SM BKN029 OVC070 00/M02 A3002 RMK AO2 SNE19 SLP164 P0000 60000 T00001022 10017 20000 58008 $

No ATC Online

Traffic

Inbound:
Ident
Type
Name
ETA
Phase
PDT132
E145/L
Gabriel KSGU
Boarding
UAE69
H/B77W
Rafael Franzese KBOS
13:19 Z
Climb

Outbound:
Ident
Type
Name
Destination
Phase